createdAt,value
2023-02-27T00:02:02.205Z,11.52
2023-02-27T00:04:28.956Z,9.43
2023-02-27T00:06:56.402Z,10.93
2023-02-27T00:09:23.177Z,10.80
2023-02-27T00:11:50.311Z,8.32
2023-02-27T00:14:17.464Z,10.90
2023-02-27T00:16:44.481Z,7.90
2023-02-27T00:19:12.075Z,8.65
2023-02-27T00:21:38.853Z,7.65
2023-02-27T00:24:06.107Z,12.98
2023-02-27T00:26:32.986Z,8.40
2023-02-27T00:29:00.176Z,7.55
2023-02-27T00:31:27.184Z,14.77
2023-02-27T00:33:54.112Z,13.00
2023-02-27T00:36:21.293Z,11.93
2023-02-27T00:38:48.421Z,12.82
2023-02-27T00:41:15.186Z,8.95
2023-02-27T00:43:42.018Z,8.95
2023-02-27T00:46:10.661Z,7.88
2023-02-27T00:48:37.932Z,11.23
2023-02-27T00:51:04.935Z,13.73
2023-02-27T00:53:32.099Z,9.82
2023-02-27T00:55:59.316Z,11.07
2023-02-27T00:58:26.120Z,9.63
2023-02-27T01:00:53.325Z,8.48
2023-02-27T01:03:20.662Z,8.48
2023-02-27T01:05:47.432Z,15.63
2023-02-27T01:08:14.471Z,15.77
2023-02-27T01:10:41.217Z,10.18
2023-02-27T01:13:10.342Z,11.68
2023-02-27T01:15:38.108Z,9.13
2023-02-27T01:18:04.878Z,13.63
2023-02-27T01:20:31.681Z,7.03
2023-02-27T01:22:58.943Z,9.25
2023-02-27T01:25:25.695Z,7.55
2023-02-27T01:27:52.750Z,12.65
2023-02-27T01:30:19.650Z,8.35
2023-02-27T01:32:46.602Z,10.32
2023-02-27T01:35:13.964Z,9.60
2023-02-27T01:37:40.798Z,10.85
2023-02-27T01:40:08.973Z,8.25
2023-02-27T01:42:35.993Z,7.07
2023-02-27T01:45:25.871Z,14.45
2023-02-27T01:47:57.383Z,12.40
2023-02-27T01:50:24.520Z,13.20
2023-02-27T01:52:58.994Z,6.35
2023-02-27T01:55:29.429Z,10.48
2023-02-27T01:57:56.890Z,10.57
2023-02-27T02:00:24.810Z,11.25
2023-02-27T02:03:06.786Z,12.23
2023-02-27T02:05:33.859Z,8.77
2023-02-27T02:08:01.323Z,14.65
2023-02-27T02:10:29.447Z,12.68
2023-02-27T02:12:57.093Z,8.40
2023-02-27T02:15:32.102Z,11.30
2023-02-27T02:18:19.675Z,9.57
2023-02-27T02:21:28.167Z,9.27
2023-02-27T02:24:14.267Z,5.40
2023-02-27T02:27:05.621Z,8.68
2023-02-27T02:30:08.656Z,9.80
2023-02-27T02:32:44.069Z,7.63
2023-02-27T02:35:42.708Z,10.10
2023-02-27T02:38:36.778Z,6.40
2023-02-27T02:41:22.942Z,7.68
2023-02-27T02:43:58.926Z,6.85
2023-02-27T02:46:49.966Z,7.65
2023-02-27T02:49:32.156Z,6.60
2023-02-27T02:52:09.596Z,8.13
2023-02-27T02:54:45.739Z,7.45
2023-02-27T02:57:23.667Z,7.18
2023-02-27T03:00:12.689Z,10.80
2023-02-27T03:02:55.269Z,7.47
2023-02-27T03:05:38.757Z,7.03
2023-02-27T03:08:11.969Z,7.43
2023-02-27T03:10:54.536Z,7.13
2023-02-27T03:13:30.775Z,5.97
2023-02-27T03:16:13.160Z,6.55
2023-02-27T03:18:57.092Z,8.80
2023-02-27T03:21:35.096Z,6.30
2023-02-27T03:24:06.085Z,5.00
2023-02-27T03:26:38.997Z,6.45
2023-02-27T03:29:14.545Z,4.53
2023-02-27T03:31:56.844Z,5.70
2023-02-27T03:34:33.477Z,5.82
2023-02-27T03:37:19.345Z,4.18
2023-02-27T03:39:53.836Z,7.15
2023-02-27T03:42:33.541Z,7.10
2023-02-27T03:45:23.509Z,7.10
2023-02-27T03:47:53.226Z,4.32
2023-02-27T03:50:20.267Z,5.13
2023-02-27T03:52:47.065Z,10.50
2023-02-27T03:55:17.691Z,4.13
2023-02-27T03:57:46.625Z,6.65
2023-02-27T04:00:20.807Z,10.18
2023-02-27T04:02:52.890Z,5.38
2023-02-27T04:05:20.988Z,10.57
2023-02-27T04:08:05.539Z,6.78
2023-02-27T04:10:58.656Z,7.55
2023-02-27T04:13:34.435Z,11.82
2023-02-27T04:16:40.122Z,4.43
2023-02-27T04:19:35.520Z,7.68
2023-02-27T04:22:33.223Z,7.88
2023-02-27T04:25:14.918Z,4.55
2023-02-27T04:28:20.768Z,4.13
2023-02-27T04:30:59.041Z,9.48
2023-02-27T04:33:44.330Z,6.53
2023-02-27T04:36:26.987Z,6.90
2023-02-27T04:39:14.141Z,7.13
2023-02-27T04:42:28.465Z,6.47
2023-02-27T04:45:01.129Z,8.35
2023-02-27T04:47:34.722Z,5.93
2023-02-27T04:50:11.807Z,5.07
2023-02-27T04:52:54.335Z,10.55
2023-02-27T04:55:43.196Z,5.50
2023-02-27T04:58:17.824Z,8.20
2023-02-27T05:00:48.344Z,8.70
2023-02-27T05:03:24.961Z,7.40
2023-02-27T05:05:55.248Z,5.18
2023-02-27T05:08:31.312Z,6.68
2023-02-27T05:11:33.431Z,8.88
2023-02-27T05:14:10.581Z,5.43
2023-02-27T05:16:58.887Z,4.97
2023-02-27T05:19:26.285Z,8.65
2023-02-27T05:22:21.369Z,10.15
2023-02-27T05:25:03.630Z,3.75
2023-02-27T05:27:49.432Z,9.63
2023-02-27T05:30:36.199Z,8.90
2023-02-27T05:33:19.050Z,5.57
2023-02-27T05:36:01.954Z,7.95
2023-02-27T05:38:42.187Z,7.45
2023-02-27T05:41:27.621Z,3.67
2023-02-27T05:44:04.161Z,7.88
2023-02-27T05:46:35.733Z,7.82
2023-02-27T05:49:38.699Z,6.90
2023-02-27T05:52:11.012Z,5.07
2023-02-27T05:54:46.732Z,7.00
2023-02-27T05:57:19.958Z,4.90
2023-02-27T06:00:05.353Z,6.25
2023-02-27T06:02:32.296Z,8.00
2023-02-27T06:04:59.117Z,5.80
2023-02-27T06:07:26.985Z,5.78
2023-02-27T06:09:53.977Z,6.95
2023-02-27T06:12:20.920Z,6.43
2023-02-27T06:14:47.661Z,9.48
2023-02-27T06:17:14.604Z,8.70
2023-02-27T06:19:44.319Z,7.38
2023-02-27T06:22:11.755Z,10.38
2023-02-27T06:24:39.733Z,6.05
2023-02-27T06:27:06.468Z,9.60
2023-02-27T06:29:33.676Z,3.50
2023-02-27T06:32:00.465Z,7.70
2023-02-27T06:34:27.638Z,9.73
2023-02-27T06:36:54.438Z,7.95
2023-02-27T06:39:21.265Z,5.32
2023-02-27T06:41:48.472Z,5.20
2023-02-27T06:44:15.458Z,5.03
2023-02-27T06:46:42.607Z,7.93
2023-02-27T06:49:09.360Z,7.00
2023-02-27T06:51:37.236Z,7.53
2023-02-27T06:54:04.088Z,3.42
2023-02-27T06:56:30.929Z,6.40
2023-02-27T06:58:59.560Z,5.72
2023-02-27T07:01:26.829Z,4.43
2023-02-27T07:03:53.599Z,6.97
2023-02-27T07:06:20.758Z,6.82
2023-02-27T07:09:01.869Z,5.97
2023-02-27T07:11:33.864Z,8.98
2023-02-27T07:14:01.048Z,6.75
2023-02-27T07:16:28.081Z,5.38
2023-02-27T07:18:55.369Z,5.68
2023-02-27T07:21:22.584Z,6.30
2023-02-27T07:23:49.463Z,14.23
2023-02-27T07:26:16.692Z,4.82
2023-02-27T07:28:43.497Z,5.63
2023-02-27T07:31:10.757Z,7.43
2023-02-27T07:33:37.586Z,8.98
2023-02-27T07:36:04.918Z,5.90
2023-02-27T07:38:32.479Z,4.28
2023-02-27T07:40:59.241Z,8.50
2023-02-27T07:43:26.520Z,7.75
2023-02-27T07:45:53.371Z,7.78
2023-02-27T07:48:20.657Z,7.05
2023-02-27T07:50:47.422Z,7.35
2023-02-27T07:53:14.250Z,5.70
2023-02-27T07:55:41.183Z,8.32
2023-02-27T07:58:08.248Z,6.53
2023-02-27T08:00:35.053Z,5.03
2023-02-27T08:03:02.271Z,7.50
2023-02-27T08:05:30.616Z,5.88
2023-02-27T08:07:57.783Z,4.25
2023-02-27T08:10:25.563Z,6.85
2023-02-27T08:12:52.790Z,4.35
2023-02-27T08:15:19.854Z,5.68
2023-02-27T08:17:47.149Z,4.72
2023-02-27T08:20:15.155Z,6.68
2023-02-27T08:22:42.500Z,4.90
2023-02-27T08:25:11.356Z,8.43
2023-02-27T08:27:39.578Z,5.68
2023-02-27T08:30:08.849Z,4.22
2023-02-27T08:32:36.368Z,4.32
2023-02-27T08:35:04.040Z,4.45
2023-02-27T08:37:31.348Z,3.70
2023-02-27T08:39:58.551Z,7.60
2023-02-27T08:42:26.869Z,3.67
2023-02-27T08:44:54.230Z,7.07
2023-02-27T08:47:21.210Z,5.20
2023-02-27T08:49:48.433Z,4.07
2023-02-27T08:52:15.357Z,5.50
2023-02-27T08:54:42.283Z,6.00
2023-02-27T08:57:09.711Z,10.38
2023-02-27T08:59:36.509Z,12.27
2023-02-27T09:02:03.282Z,6.00
2023-02-27T09:04:30.478Z,5.35
2023-02-27T09:06:58.142Z,4.68
2023-02-27T09:09:25.362Z,9.88
2023-02-27T09:11:52.212Z,5.22
2023-02-27T09:14:19.883Z,6.20
2023-02-27T09:16:47.238Z,5.47
2023-02-27T09:19:14.532Z,6.78
2023-02-27T09:21:42.986Z,4.85
2023-02-27T09:24:19.347Z,2.85
2023-02-27T09:26:47.317Z,4.13
2023-02-27T09:29:14.514Z,5.28
2023-02-27T09:31:41.399Z,4.68
2023-02-27T09:34:08.549Z,3.08
2023-02-27T09:36:35.408Z,2.28
2023-02-27T09:39:02.573Z,6.32
2023-02-27T09:41:46.784Z,2.90
2023-02-27T09:44:45.772Z,2.97
2023-02-27T09:47:23.652Z,3.75
2023-02-27T09:49:59.330Z,9.35
2023-02-27T09:52:27.649Z,4.68
2023-02-27T09:54:55.238Z,8.15
2023-02-27T09:57:56.750Z,4.18
2023-02-27T10:00:44.526Z,3.83
2023-02-27T10:03:48.200Z,2.65
2023-02-27T10:06:52.984Z,5.78
2023-02-27T10:09:49.998Z,3.03
2023-02-27T10:12:55.302Z,10.27
2023-02-27T10:15:38.173Z,9.23
2023-02-27T10:18:26.919Z,4.10
2023-02-27T10:20:59.266Z,4.82
2023-02-27T10:23:53.359Z,3.75
2023-02-27T10:26:25.229Z,4.40
2023-02-27T10:28:52.593Z,11.50
2023-02-27T10:31:28.659Z,3.70
2023-02-27T10:33:57.450Z,3.67
2023-02-27T10:36:33.541Z,5.90
2023-02-27T10:39:15.959Z,5.38
2023-02-27T10:41:45.818Z,8.60
2023-02-27T10:44:16.438Z,3.92
2023-02-27T10:46:43.458Z,6.38
2023-02-27T10:49:21.193Z,4.80
2023-02-27T10:52:11.639Z,4.00
2023-02-27T10:54:39.820Z,3.78
2023-02-27T10:57:33.729Z,7.97
2023-02-27T11:00:05.914Z,6.07
2023-02-27T11:02:41.924Z,7.47
2023-02-27T11:05:32.107Z,2.92
2023-02-27T11:08:21.647Z,2.10
2023-02-27T11:10:58.834Z,5.82
2023-02-27T11:13:28.267Z,5.25
2023-02-27T11:16:03.581Z,5.97
2023-02-27T11:18:30.999Z,5.82
2023-02-27T11:21:18.487Z,2.55
2023-02-27T11:24:03.188Z,2.40
2023-02-27T11:26:34.728Z,4.97
2023-02-27T11:29:15.679Z,3.53
2023-02-27T11:31:56.433Z,2.22
2023-02-27T11:34:51.217Z,5.40
2023-02-27T11:37:27.241Z,4.18
2023-02-27T11:40:14.852Z,5.38
2023-02-27T11:42:52.235Z,5.25
2023-02-27T11:46:04.261Z,7.63
2023-02-27T11:48:28.887Z,4.90
2023-02-27T11:51:48.593Z,2.75
2023-02-27T11:54:28.983Z,4.93
2023-02-27T11:57:06.212Z,1.65
2023-02-27T11:59:46.048Z,3.38
2023-02-27T12:02:42.695Z,3.65
2023-02-27T12:05:25.800Z,2.70
2023-02-27T12:07:57.360Z,2.45
2023-02-27T12:10:32.478Z,9.32
2023-02-27T12:13:03.459Z,3.83
2023-02-27T12:15:45.103Z,9.80
2023-02-27T12:18:17.063Z,5.60
2023-02-27T12:20:54.397Z,3.55
2023-02-27T12:23:49.764Z,3.33
2023-02-27T12:26:26.337Z,2.35
2023-02-27T12:29:00.500Z,2.55
2023-02-27T12:31:45.018Z,3.45
2023-02-27T12:34:15.021Z,3.08
2023-02-27T12:36:41.909Z,5.22
2023-02-27T12:39:29.391Z,7.00
2023-02-27T12:42:18.009Z,4.93
2023-02-27T12:45:14.231Z,5.55
2023-02-27T12:48:05.158Z,7.75
2023-02-27T12:51:10.682Z,5.32
2023-02-27T12:54:05.175Z,7.32
2023-02-27T12:56:45.167Z,7.57
2023-02-27T12:59:45.578Z,8.80
2023-02-27T13:02:43.164Z,4.38
2023-02-27T13:05:28.058Z,10.70
2023-02-27T13:08:09.562Z,7.90
2023-02-27T13:10:45.088Z,4.82
2023-02-27T13:13:18.153Z,7.93
2023-02-27T13:15:53.613Z,6.88
2023-02-27T13:18:45.565Z,6.70
2023-02-27T13:21:20.257Z,8.63
2023-02-27T13:24:00.972Z,10.15
2023-02-27T13:26:34.612Z,5.63
2023-02-27T13:29:02.212Z,10.52
2023-02-27T13:31:50.678Z,5.55
2023-02-27T13:34:35.022Z,2.65
2023-02-27T13:37:06.227Z,5.65
2023-02-27T13:39:49.304Z,4.78
2023-02-27T13:42:28.942Z,8.40
2023-02-27T13:44:58.590Z,3.67
2023-02-27T13:47:38.760Z,3.53
2023-02-27T13:50:25.511Z,6.95
2023-02-27T13:52:53.572Z,5.97
2023-02-27T13:55:35.839Z,9.55
2023-02-27T13:58:04.989Z,6.20
2023-02-27T14:00:38.180Z,6.60
2023-02-27T14:03:09.633Z,8.88
2023-02-27T14:05:40.236Z,8.80
2023-02-27T14:08:19.381Z,6.97
2023-02-27T14:11:00.876Z,7.90
2023-02-27T14:13:49.222Z,7.40
2023-02-27T14:16:51.746Z,8.73
2023-02-27T14:19:24.653Z,6.88
2023-02-27T14:21:51.825Z,8.38
2023-02-27T14:24:22.350Z,12.07
2023-02-27T14:26:49.974Z,6.90
2023-02-27T14:29:31.370Z,5.88
2023-02-27T14:32:07.009Z,10.52
2023-02-27T14:34:38.544Z,7.90
2023-02-27T14:37:10.286Z,6.10
2023-02-27T14:39:38.071Z,7.88
2023-02-27T14:42:26.353Z,10.40
2023-02-27T14:44:53.795Z,8.13
2023-02-27T14:47:25.980Z,7.20
2023-02-27T14:49:52.931Z,7.90
2023-02-27T14:52:23.882Z,13.60
2023-02-27T14:54:51.623Z,7.97
2023-02-27T14:57:26.711Z,8.18
2023-02-27T14:59:54.676Z,5.60
2023-02-27T15:02:36.494Z,6.38
2023-02-27T15:05:03.578Z,6.05
2023-02-27T15:07:33.728Z,7.82
2023-02-27T15:10:04.804Z,5.03
2023-02-27T15:12:36.390Z,6.97
2023-02-27T15:15:06.385Z,4.65
2023-02-27T15:17:42.153Z,10.77
2023-02-27T15:20:33.281Z,6.13
2023-02-27T15:23:02.235Z,9.02
2023-02-27T15:25:38.512Z,9.43
2023-02-27T15:28:08.671Z,5.63
2023-02-27T15:30:35.483Z,5.18
2023-02-27T15:33:02.944Z,8.13
2023-02-27T15:35:38.148Z,9.63
2023-02-27T15:38:06.654Z,8.30
2023-02-27T15:40:34.551Z,6.25
2023-02-27T15:43:01.786Z,5.88
2023-02-27T15:45:41.589Z,4.72
2023-02-27T15:48:14.600Z,6.15
2023-02-27T15:50:49.021Z,7.28
2023-02-27T15:53:21.892Z,13.02
2023-02-27T15:55:52.468Z,7.80
2023-02-27T15:58:31.974Z,5.85
2023-02-27T16:01:03.113Z,6.78
2023-02-27T16:03:58.651Z,5.15
2023-02-27T16:06:37.924Z,5.65
2023-02-27T16:09:18.136Z,12.77
2023-02-27T16:11:45.079Z,5.35
2023-02-27T16:14:41.968Z,7.50
2023-02-27T16:17:25.197Z,8.38
2023-02-27T16:19:53.697Z,5.95
2023-02-27T16:22:21.755Z,10.85
2023-02-27T16:24:50.190Z,7.53
2023-02-27T16:27:18.967Z,5.70
2023-02-27T16:29:47.175Z,8.70
2023-02-27T16:32:26.795Z,9.60
2023-02-27T16:35:02.191Z,6.18
2023-02-27T16:37:38.287Z,8.52
2023-02-27T16:40:15.746Z,6.70
2023-02-27T16:42:43.560Z,7.40
2023-02-27T16:45:31.241Z,11.82
2023-02-27T16:48:00.297Z,10.55
2023-02-27T16:50:40.535Z,13.25
2023-02-27T16:53:08.145Z,11.40
2023-02-27T16:55:39.507Z,14.20
2023-02-27T16:58:06.760Z,7.57
2023-02-27T17:00:36.743Z,9.85
2023-02-27T17:03:03.685Z,49.10
2023-02-27T17:05:30.425Z,6.45
2023-02-27T17:07:57.669Z,14.82
2023-02-27T17:10:25.524Z,11.38
2023-02-27T17:13:03.502Z,9.90
2023-02-27T17:15:49.820Z,13.23
2023-02-27T17:18:17.110Z,7.97
2023-02-27T17:20:54.410Z,9.73
2023-02-27T17:37:11.113Z,9.95
2023-02-27T17:46:35.145Z,8.38
2023-02-27T17:49:05.313Z,10.50
2023-02-27T17:53:20.123Z,9.35
2023-02-27T17:54:39.889Z,8.80
2023-02-27T17:59:12.256Z,11.73
2023-02-27T18:00:31.370Z,10.45
2023-02-27T18:03:10.649Z,10.95
2023-02-27T18:11:52.597Z,14.25
2023-02-27T18:13:30.654Z,16.48
2023-02-27T18:16:55.745Z,12.50
2023-02-27T18:19:19.102Z,16.38
2023-02-27T18:24:56.351Z,14.50
2023-02-27T18:27:57.049Z,18.88
2023-02-27T18:30:40.237Z,12.45
2023-02-27T18:36:36.195Z,13.65
2023-02-27T18:39:41.409Z,11.30
2023-02-27T18:42:22.787Z,14.98
2023-02-27T18:45:01.494Z,12.77
2023-02-27T18:48:27.609Z,10.30
2023-02-27T18:50:40.747Z,10.38
2023-02-27T18:53:58.331Z,16.55
2023-02-27T18:59:59.020Z,11.77
2023-02-27T19:03:18.578Z,7.63
2023-02-27T19:11:57.916Z,12.27
2023-02-27T19:14:26.592Z,9.50
2023-02-27T19:17:10.212Z,14.60
2023-02-27T19:19:37.445Z,12.02
2023-02-27T19:22:04.812Z,14.35
2023-02-27T19:24:31.871Z,12.32
2023-02-27T19:27:01.586Z,15.77
2023-02-27T19:29:29.263Z,11.32
2023-02-27T19:31:56.392Z,7.65
2023-02-27T19:34:24.243Z,9.48
2023-02-27T19:36:51.058Z,13.65
2023-02-27T19:39:18.066Z,11.68
2023-02-27T19:41:45.297Z,13.50
2023-02-27T19:44:12.681Z,11.77
2023-02-27T19:46:47.032Z,9.52
2023-02-27T19:49:15.273Z,21.80
2023-02-27T19:51:42.374Z,8.15
2023-02-27T19:54:13.248Z,12.25
2023-02-27T19:56:40.497Z,8.27
2023-02-27T19:59:07.869Z,10.13
2023-02-27T20:01:39.254Z,9.98
2023-02-27T20:04:07.934Z,14.10
2023-02-27T20:06:43.989Z,12.80
2023-02-27T20:09:16.741Z,12.50
2023-02-27T20:11:44.697Z,16.33
2023-02-27T20:14:13.983Z,8.25
2023-02-27T20:16:41.994Z,20.13
2023-02-27T20:19:12.022Z,12.27
2023-02-27T20:21:41.353Z,15.50
2023-02-27T20:24:10.389Z,14.30
2023-02-27T20:26:41.300Z,12.88
2023-02-27T20:29:11.445Z,15.13
2023-02-27T20:31:40.165Z,15.82
2023-02-27T20:34:10.164Z,13.90
2023-02-27T20:36:39.469Z,16.17
2023-02-27T20:39:07.480Z,19.63
2023-02-27T20:41:35.394Z,16.70
2023-02-27T20:44:08.324Z,15.20
2023-02-27T20:46:36.637Z,18.92
2023-02-27T20:49:06.180Z,17.92
2023-02-27T20:51:37.025Z,20.80
2023-02-27T20:54:06.937Z,13.95
2023-02-27T20:56:38.239Z,14.82
2023-02-27T20:59:07.241Z,15.48
2023-02-27T21:01:36.243Z,16.67
2023-02-27T21:04:04.264Z,18.67
2023-02-27T21:06:32.119Z,12.50
2023-02-27T21:09:03.111Z,17.63
2023-02-27T21:11:32.201Z,18.20
2023-02-27T21:14:11.310Z,15.90
2023-02-27T21:16:41.170Z,25.33
2023-02-27T21:19:08.690Z,19.58
2023-02-27T21:21:37.403Z,25.38
2023-02-27T21:24:08.068Z,13.85
2023-02-27T21:26:39.074Z,22.15
2023-02-27T21:29:17.785Z,12.95
2023-02-27T21:31:48.458Z,18.33
2023-02-27T21:34:19.283Z,15.10
2023-02-27T21:36:47.490Z,11.50
2023-02-27T21:39:17.309Z,17.83
2023-02-27T21:41:45.207Z,20.23
2023-02-27T21:44:15.312Z,18.60
2023-02-27T21:46:42.425Z,19.58
2023-02-27T21:49:19.390Z,20.02
2023-02-27T21:51:47.342Z,17.98
2023-02-27T21:54:17.404Z,19.80
2023-02-27T21:56:46.061Z,21.60
2023-02-27T21:59:13.922Z,17.75
2023-02-27T22:01:40.964Z,19.05
2023-02-27T22:04:08.107Z,16.20
2023-02-27T22:06:35.578Z,17.02
2023-02-27T22:09:06.236Z,17.40
2023-02-27T22:11:34.360Z,21.95
2023-02-27T22:14:01.152Z,19.65
2023-02-27T22:16:28.376Z,15.75
2023-02-27T22:18:55.155Z,15.77
2023-02-27T22:21:25.880Z,27.80
2023-02-27T22:23:53.510Z,18.75
2023-02-27T22:26:24.829Z,20.10
2023-02-27T22:28:52.703Z,19.48
2023-02-27T22:31:23.214Z,20.52
2023-02-27T22:33:52.982Z,15.77
2023-02-27T22:36:25.826Z,18.52
2023-02-27T22:38:53.603Z,15.95
2023-02-27T22:41:31.933Z,15.57
2023-02-27T22:44:00.368Z,18.65
2023-02-27T22:46:34.951Z,20.10
2023-02-27T22:49:08.249Z,14.90
2023-02-27T22:51:35.647Z,17.45
2023-02-27T22:54:04.404Z,19.52
2023-02-27T22:56:32.774Z,12.57
2023-02-27T22:59:00.249Z,15.90
2023-02-27T23:01:32.327Z,16.30
2023-02-27T23:04:02.227Z,16.92
2023-02-27T23:06:35.191Z,20.48
2023-02-27T23:09:03.565Z,17.85
2023-02-27T23:11:31.214Z,16.60
2023-02-27T23:13:58.124Z,13.68
2023-02-27T23:16:26.739Z,15.00
2023-02-27T23:18:56.878Z,16.85
2023-02-27T23:21:30.170Z,18.38
2023-02-27T23:23:58.466Z,20.27
2023-02-27T23:26:28.824Z,22.90
2023-02-27T23:28:58.911Z,19.17
2023-02-27T23:31:26.069Z,19.00
2023-02-27T23:33:53.389Z,13.70
2023-02-27T23:36:20.130Z,18.77
2023-02-27T23:38:47.617Z,16.13
2023-02-27T23:41:17.843Z,13.23
2023-02-27T23:43:45.090Z,16.67
2023-02-27T23:46:14.893Z,21.98
2023-02-27T23:48:45.392Z,16.55
2023-02-27T23:51:12.414Z,17.05
2023-02-27T23:53:40.879Z,13.75
2023-02-27T23:56:21.177Z,18.48
2023-02-27T23:58:52.810Z,16.38
